createdAt,value
2022-09-12T00:02:30.209Z,100
2022-09-12T00:12:32.068Z,100
2022-09-12T00:32:36.408Z,100
2022-09-12T00:42:38.163Z,100
2022-09-12T00:52:40.694Z,100
2022-09-12T01:02:43.337Z,100
2022-09-12T01:12:45.365Z,100
2022-09-12T01:22:47.059Z,100
2022-09-12T01:32:48.969Z,100
2022-09-12T01:42:50.665Z,100
2022-09-12T02:02:54.978Z,100
2022-09-12T02:12:57.251Z,100
2022-09-12T02:22:59.286Z,100
2022-09-12T02:33:01.519Z,100
2022-09-12T02:53:06.171Z,100
2022-09-12T03:03:08.118Z,100
2022-09-12T03:13:10.371Z,100
2022-09-12T03:43:17.044Z,100
2022-09-12T03:53:19.575Z,100
2022-09-12T04:03:21.926Z,100
2022-09-12T04:13:23.708Z,100
2022-09-12T04:33:28.362Z,100
2022-09-12T04:43:31.044Z,100
2022-09-12T04:53:33.678Z,100
2022-09-12T05:13:37.909Z,100
2022-09-12T05:23:40.612Z,100
2022-09-12T06:03:48.737Z,100
2022-09-12T06:13:51.039Z,100
2022-09-12T06:23:52.821Z,100
2022-09-12T06:33:54.926Z,100
2022-09-12T06:43:56.858Z,100
2022-09-12T06:53:58.808Z,100
2022-09-12T07:04:01.179Z,100
2022-09-12T07:14:02.882Z,100
2022-09-12T07:24:05.539Z,100
2022-09-12T07:34:08.123Z,100
2022-09-12T07:54:11.957Z,100
2022-09-12T08:04:13.985Z,100
2022-09-12T08:14:15.951Z,100
2022-09-12T08:24:17.935Z,100
2022-09-12T08:34:19.449Z,100
2022-09-12T08:44:21.394Z,100
2022-09-12T08:54:24.063Z,100
2022-09-12T09:04:28.714Z,100
2022-09-12T09:14:28.912Z,100
2022-09-12T09:24:31.474Z,100
2022-09-12T09:34:33.458Z,100
2022-09-12T09:44:35.183Z,100
2022-09-12T10:04:41.466Z,100
2022-09-12T10:14:42.298Z,94
2022-09-12T10:24:44.260Z,88
2022-09-12T10:34:46.814Z,83
2022-09-12T10:44:48.504Z,77
2022-09-12T10:54:50.743Z,72
2022-09-12T11:04:52.377Z,69
2022-09-12T11:14:54.432Z,65
2022-09-12T11:24:56.402Z,62
2022-09-12T11:34:58.905Z,59
2022-09-12T11:55:03.333Z,53
2022-09-12T12:05:05.148Z,54
2022-09-12T12:15:07.223Z,55
2022-09-12T12:25:09.566Z,52
2022-09-12T12:45:13.237Z,52
2022-09-12T12:55:15.125Z,51
2022-09-12T13:05:17.181Z,49
2022-09-12T13:15:19.431Z,48
2022-09-12T13:25:21.288Z,46
2022-09-12T13:27:59.634Z,46
2022-09-12T13:35:33.329Z,45
2022-09-12T13:45:35.367Z,45
2022-09-12T13:55:37.437Z,45
2022-09-12T14:05:39.834Z,46
2022-09-12T14:15:42.457Z,46
2022-09-12T14:25:44.695Z,46
2022-09-12T14:45:49.409Z,47
2022-09-12T14:55:51.416Z,46
2022-09-12T15:05:53.209Z,44
2022-09-12T15:15:55.389Z,44
2022-09-12T15:25:58.040Z,45
2022-09-12T15:35:59.859Z,46
2022-09-12T15:46:02.111Z,46
2022-09-12T15:56:04.007Z,46
2022-09-12T16:06:05.902Z,47
2022-09-12T16:16:08.221Z,47
2022-09-12T16:26:10.081Z,47
2022-09-12T16:36:12.165Z,48
2022-09-12T16:46:14.164Z,49
2022-09-12T16:56:16.564Z,49
2022-09-12T17:16:21.787Z,52
2022-09-12T17:26:24.030Z,53
2022-09-12T17:36:26.327Z,54
2022-09-12T17:46:29.031Z,56
2022-09-12T17:56:31.504Z,58
2022-09-12T18:06:33.723Z,60
2022-09-12T18:16:35.860Z,62
2022-09-12T18:36:39.770Z,68
2022-09-12T18:46:42.261Z,71
2022-09-12T18:56:44.499Z,73
2022-09-12T19:06:46.525Z,77
2022-09-12T19:16:49.135Z,82
2022-09-12T19:26:50.862Z,85
2022-09-12T19:36:52.577Z,89
2022-09-12T19:46:54.388Z,91
2022-09-12T19:56:56.921Z,92
2022-09-12T20:06:59.452Z,93
2022-09-12T20:17:01.609Z,97
2022-09-12T20:27:03.507Z,100
2022-09-12T20:37:05.582Z,100
2022-09-12T20:47:07.905Z,100
2022-09-12T20:57:09.841Z,100
2022-09-12T21:07:12.147Z,100
2022-09-12T21:17:14.621Z,100
2022-09-12T21:37:19.383Z,100
2022-09-12T21:47:21.701Z,100
2022-09-12T21:57:23.895Z,100
2022-09-12T22:07:25.985Z,100
2022-09-12T22:17:28.319Z,100
2022-09-12T22:27:30.065Z,100
2022-09-12T22:37:32.084Z,100
2022-09-12T22:47:34.703Z,100
2022-09-12T22:57:36.937Z,100
2022-09-12T23:07:39.298Z,100
2022-09-12T23:17:41.273Z,100
2022-09-12T23:27:43.843Z,100
2022-09-12T23:37:46.218Z,100
2022-09-12T23:47:48.307Z,100
